Goodway, Alabama
Current Conditions -  °F | °C
As of 10:53 AM on Friday 24 Oct 2014 (Local Time) from KGZH Reporting Station
Clear Clear  
Wind Chill: 71°   Ceiling: Unl
Heat Index: 71°   Visibility: 10mi
Dew Point: 46°   Wind: 5mph
Humidity: 41%   Direction: 360°N
Pressure: 30.09"   Gusts: NA
Location:  31.34°N, 87.43°W
Report Text: KGZH 241553Z AUTO 36004KT 10SM CLR 22/08 A3009 RMK AO2 SLP188 T02170078
Loading
Personal Weather Stations






























Interactive Weather Map
Tropical Storm Tracking
New forecast layout! Learn more

10-Day Weather Forecast

Advertisements
Track Severe Weather on mobile